x

Ne Puerto Rico - 170 Nm Nne Of San Juan, P R (41043) Wave Buoy

12:50am - Sat 29th Nov 2014 All times are AST. -4 hours from GMT.

  • Sig Wave height 5.2ft
  • Swell Direction
  • Peak Period 10s
  • Average Period 8s
  • Wind
    2mph, 4mph gusts
  • Sea Temp 82°f
  • Air Temp 79°f
  • Sea Pressure 1015mb
  • Ne Puerto Rico  - 170 Nm Nne Of San Juan,  P R
  • Ne Puerto Rico  - 170 Nm Nne Of San Juan,  P R

More Historic Weather Station data

Upgrade to MSW Pro to gain access to the past 30 days of data for over 8000 Wavebouys and Weather Stations around the globe.

Join Pro

Comparision Forecast

View Surf forecast
   
Sat 11/29 12:50am 5ft 10s 8s 2 4 mph 1015mb 82f 79f
Fri 11/28 11:50pm 5ft 10s 8s 2 4 mph 1015.5mb 82f 79f
10:50pm 6ft 10s 8s 2 4 mph 1015.9mb 82f 80f
9:50pm 5.5ft 10s 8s 2 4 mph 1016.1mb 82f 80f
8:50pm 5.5ft 10s 8s 4
mph
1015.9mb 83f 80f
7:50pm 5ft 11s 8s 2 4 mph 1015.4mb 83f 80f
6:50pm 5.5ft 10s 8s 2 4 mph 1014.9mb 83f 80f
5:50pm 5ft 10s 8s 4
mph
1014.5mb 83f 80f
4:50pm 5ft 9s 8s 4
mph
1014.1mb 83f 80f
3:50pm 6ft 10s 8s 2 7 mph 1013.9mb 83f 81f
2:50pm 6ft 11s 8s 2 4 mph 1013.8mb 84f 80f
1:50pm 5ft 10s 7s 2 4 mph 1014.1mb 84f 80f
12:50pm 5.5ft 10s 7s 2 4 mph 1014.6mb 83f 80f
11:50am 5.5ft 10s 7s 4
mph
1015.3mb 83f 80f
10:50am 5.5ft 9s 7s 4 7 mph 1015.7mb 83f 80f
9:50am 5.5ft 10s 7s 2
mph
1016.2mb 82f 80f
8:50am 5.5ft 10s 7s  -  2 mph 1016.1mb 82f 80f
7:50am 6ft 10s 7s 2 4 mph 1015.5mb 82f 79f
6:50am 6ft 10s 7s  -  2 mph 1014.8mb 82f 78f
5:50am 6ft 10s 7s  -  2 mph 1014.2mb 82f 78f
4:50am 6.5ft 9s 8s 2
mph
1014mb 82f 78f
3:50am 6.5ft 10s 7s 2 4 mph 1013.8mb 82f 78f
2:50am 6.5ft 8s 7s 2 4 mph 1014mb 82f 78f
1:50am 6.5ft 10s 7s 7
mph
1014.8mb 82f 77f
12:50am 7ft 9s 7s 7 11 mph 1015.4mb 82f 76f
Thu 11/27 10:50pm 7ft 10s 8s 4 7 mph 1015.4mb 82f 80f
9:50pm 7ft 10s 7s 4 7 mph 1015.3mb 82f 80f
8:50pm 7ft 9s 7s 7 9 mph 1015.4mb 82f 80f
7:50pm 7.5ft 9s 7s 9 11 mph 1014.9mb 82f 80f
6:50pm 7ft 9s 7s 7 9 mph 1014.9mb 82f 80f
5:50pm 6.5ft 9s 7s 7 9 mph 1014.7mb 82f 80f
4:50pm 7ft 9s 7s 9 11 mph 1014.5mb 82f 80f
3:50pm 7ft 9s 7s 11 13 mph 1014.2mb 82f 80f
2:50pm 6.5ft 9s 7s 11 13 mph 1014.3mb 82f 80f
1:50pm 6ft 9s 6s 11 16 mph 1014.7mb 82f 81f
12:50pm 6ft 10s 6s 9 13 mph 1015.3mb 82f 80f
11:50am 6.5ft 9s 6s 13 16 mph 1016.3mb 82f 81f
10:50am 7ft 9s 7s 18 25 mph 1017mb 82f 80f
9:50am 7ft 9s 7s 13 16 mph 1017.3mb 82f 81f
8:50am 7.5ft 10s 7s 18 20 mph 1017mb 82f 80f
7:50am 7ft 9s 7s 16 18 mph 1016.8mb 82f 80f
6:50am 7ft 9s 7s 16 20 mph 1016.5mb 82f 80f
5:50am 8ft 9s 7s 13 18 mph 1016.2mb 82f 80f
4:50am 8ft 10s 7s 18 20 mph 1015.9mb 82f 80f
3:50am 7.5ft 10s 6s 18 20 mph 1016mb 82f 80f
2:50am 9ft 9s 7s 18 20 mph 1016.2mb 82f 80f
1:50am 8ft 9s 7s 18 20 mph 1016.9mb 82f 80f
12:50am 9ft 8s 7s 18 20 mph 1017.5mb 82f 81f
Wed 11/26 11:50pm 9ft 9s 7s 16 20 mph 1018.1mb 82f 81f
10:50pm 10ft 9s 7s 18 22 mph 1018.6mb 82f 81f
9:50pm 9.5ft 9s 7s 18 22 mph 1018.6mb 82f 81f
8:50pm 10.5ft 9s 7s 18 22 mph 1018.6mb 82f 81f
7:50pm 10ft 10s 7s 18 22 mph 1018.4mb 82f 81f
6:50pm 9.5ft 9s 7s 20 22 mph 1018mb 82f 81f
5:50pm 9.5ft 9s 7s 22 25 mph 1017.5mb 82f 81f
4:50pm 8.5ft 9s 6s 20 22 mph 1017.2mb 82f 81f
3:50pm 9ft 8s 7s 20 25 mph 1016.8mb 82f 81f
2:50pm 8ft 9s 6s 18 20 mph 1016.9mb 82f 82f
1:50pm 8ft 9s 7s 16 20 mph 1017mb 82f 82f
12:50pm 9ft 8s 7s 16 20 mph 1017.8mb 82f 82f
11:50am 8ft 9s 6s 18 20 mph 1018.8mb 82f 82f
10:50am 8ft 9s 6s 16 20 mph 1019.3mb 82f 82f
9:50am 8.5ft 9s 7s 18 20 mph 1019.4mb 82f 82f
8:50am 7.5ft 9s 6s 18 22 mph 1019.1mb 82f 82f
7:50am 8ft 9s 6s 18 22 mph 1018.5mb 82f 81f
6:50am 8ft 8s 7s 18 22 mph 1018mb 82f 80f
5:50am 9ft 8s 7s 16 20 mph 1017.4mb 82f 81f
4:50am 9ft 8s 6s 20 22 mph 1016.9mb 82f 81f
3:50am 9ft 8s 6s 20 25 mph 1016.7mb 82f 81f
2:50am 9ft 9s 6s 18 25 mph 1016.8mb 82f 80f
1:50am 8.5ft 9s 6s 22 27 mph 1017mb 82f 81f
12:50am 9ft 9s 6s 25 27 mph 1017.3mb 82f 81f
Tue 11/25 11:50pm 9ft 8s 6s 20 25 mph 1018.2mb 82f 81f
10:50pm 9ft 9s 6s 27 36 mph 1018.5mb 82f 80f
9:50pm 8ft 8s 6s 22 31 mph 1018.8mb 82f 82f
8:50pm 8ft 9s 6s 25 31 mph 1018.4mb 82f 82f
7:50pm 8ft 8s 6s 25 29 mph 1018mb 82f 81f
6:50pm 8.5ft 8s 6s 25 31 mph 1018.1mb 82f 80f
5:50pm 8ft 8s 6s 22 27 mph 1017.8mb 82f 81f
4:50pm 8.5ft 8s 6s 25 29 mph 1017.7mb 82f 81f
3:50pm 9ft 8s 6s 22 25 mph 1018.1mb 82f 82f
2:50pm 8ft 8s 6s 20 25 mph 1018.4mb 82f 82f
1:50pm 8ft 9s 6s 22 27 mph 1018.6mb 82f 82f
12:50pm 8.5ft 8s 6s 20 25 mph 1019.1mb 82f 82f
11:50am 8ft 9s 6s 22 27 mph 1019.8mb 82f 82f
10:50am 9ft 8s 6s 22 29 mph 1020.5mb 82f 82f
9:50am 8.5ft 8s 6s 22 27 mph 1020.7mb 82f 82f
8:50am 8.5ft 8s 6s 27 31 mph 1020.1mb 82f 82f
7:50am 9ft 8s 7s 25 29 mph 1019.6mb 82f 82f
6:50am 8ft 9s 6s 25 31 mph 1019.3mb 82f 81f